sensor_id;sensor_type;location;lat;lon;timestamp;P1;durP1;ratioP1;P2;durP2;ratioP2
25905;SDS011;13713;52.552;13.204;2023-03-16T00:02:19;68.13;;;34.78;;
25905;SDS011;13713;52.552;13.204;2023-03-16T00:04:44;60.80;;;32.80;;
25905;SDS011;13713;52.552;13.204;2023-03-16T00:07:11;57.38;;;32.15;;
25905;SDS011;13713;52.552;13.204;2023-03-16T00:09:38;57.70;;;32.38;;
25905;SDS011;13713;52.552;13.204;2023-03-16T00:12:12;55.95;;;32.28;;
25905;SDS011;13713;52.552;13.204;2023-03-16T00:14:42;54.08;;;31.40;;
25905;SDS011;13713;52.552;13.204;2023-03-16T00:17:10;55.78;;;31.55;;
25905;SDS011;13713;52.552;13.204;2023-03-16T00:19:43;55.78;;;31.42;;
25905;SDS011;13713;52.552;13.204;2023-03-16T00:22:11;58.72;;;31.13;;
25905;SDS011;13713;52.552;13.204;2023-03-16T00:24:39;55.35;;;29.90;;
25905;SDS011;13713;52.552;13.204;2023-03-16T00:27:09;55.38;;;31.45;;
25905;SDS011;13713;52.552;13.204;2023-03-16T00:29:42;52.38;;;30.65;;
25905;SDS011;13713;52.552;13.204;2023-03-16T00:32:15;52.03;;;30.70;;
25905;SDS011;13713;52.552;13.204;2023-03-16T00:34:42;49.88;;;29.20;;
25905;SDS011;13713;52.552;13.204;2023-03-16T00:37:09;52.78;;;29.60;;
25905;SDS011;13713;52.552;13.204;2023-03-16T00:39:39;55.05;;;28.92;;
25905;SDS011;13713;52.552;13.204;2023-03-16T00:42:11;54.38;;;29.90;;
25905;SDS011;13713;52.552;13.204;2023-03-16T00:44:38;52.83;;;29.17;;
25905;SDS011;13713;52.552;13.204;2023-03-16T00:47:06;52.33;;;29.23;;
25905;SDS011;13713;52.552;13.204;2023-03-16T00:49:32;50.35;;;28.80;;
25905;SDS011;13713;52.552;13.204;2023-03-16T00:52:01;51.97;;;28.88;;
25905;SDS011;13713;52.552;13.204;2023-03-16T00:54:32;45.63;;;26.83;;
25905;SDS011;13713;52.552;13.204;2023-03-16T00:56:58;50.33;;;28.35;;
25905;SDS011;13713;52.552;13.204;2023-03-16T00:59:25;47.33;;;26.70;;
25905;SDS011;13713;52.552;13.204;2023-03-16T01:01:51;48.85;;;27.75;;
25905;SDS011;13713;52.552;13.204;2023-03-16T01:04:18;44.60;;;25.48;;
25905;SDS011;13713;52.552;13.204;2023-03-16T01:06:44;44.67;;;26.70;;
25905;SDS011;13713;52.552;13.204;2023-03-16T01:09:11;45.78;;;26.58;;
25905;SDS011;13713;52.552;13.204;2023-03-16T01:11:37;46.58;;;26.92;;
25905;SDS011;13713;52.552;13.204;2023-03-16T01:14:04;43.85;;;26.00;;
25905;SDS011;13713;52.552;13.204;2023-03-16T01:16:29;43.63;;;26.02;;
25905;SDS011;13713;52.552;13.204;2023-03-16T01:18:57;42.47;;;25.25;;
25905;SDS011;13713;52.552;13.204;2023-03-16T01:21:23;46.17;;;26.08;;
25905;SDS011;13713;52.552;13.204;2023-03-16T01:23:49;42.55;;;24.63;;
25905;SDS011;13713;52.552;13.204;2023-03-16T01:26:15;46.30;;;24.58;;
25905;SDS011;13713;52.552;13.204;2023-03-16T01:28:42;46.50;;;25.50;;
25905;SDS011;13713;52.552;13.204;2023-03-16T01:31:09;43.67;;;25.10;;
25905;SDS011;13713;52.552;13.204;2023-03-16T01:33:37;43.70;;;24.98;;
25905;SDS011;13713;52.552;13.204;2023-03-16T01:36:07;45.67;;;24.67;;
25905;SDS011;13713;52.552;13.204;2023-03-16T01:39:13;40.92;;;23.95;;
25905;SDS011;13713;52.552;13.204;2023-03-16T01:41:43;44.10;;;24.52;;
25905;SDS011;13713;52.552;13.204;2023-03-16T01:44:14;42.13;;;24.05;;
25905;SDS011;13713;52.552;13.204;2023-03-16T01:46:46;38.45;;;23.15;;
25905;SDS011;13713;52.552;13.204;2023-03-16T01:49:26;40.88;;;24.08;;
25905;SDS011;13713;52.552;13.204;2023-03-16T01:52:02;40.50;;;22.20;;
25905;SDS011;13713;52.552;13.204;2023-03-16T01:54:32;39.10;;;22.20;;
25905;SDS011;13713;52.552;13.204;2023-03-16T01:57:08;39.53;;;22.15;;
25905;SDS011;13713;52.552;13.204;2023-03-16T01:59:42;37.80;;;22.25;;
25905;SDS011;13713;52.552;13.204;2023-03-16T02:02:14;37.58;;;21.48;;
25905;SDS011;13713;52.552;13.204;2023-03-16T02:04:50;37.30;;;21.02;;
25905;SDS011;13713;52.552;13.204;2023-03-16T02:07:23;39.53;;;21.33;;
25905;SDS011;13713;52.552;13.204;2023-03-16T02:09:52;36.53;;;21.00;;
25905;SDS011;13713;52.552;13.204;2023-03-16T02:12:22;37.13;;;21.98;;
25905;SDS011;13713;52.552;13.204;2023-03-16T02:14:52;38.30;;;20.80;;
25905;SDS011;13713;52.552;13.204;2023-03-16T02:17:20;36.88;;;21.48;;
25905;SDS011;13713;52.552;13.204;2023-03-16T02:20:14;37.65;;;20.92;;
25905;SDS011;13713;52.552;13.204;2023-03-16T02:22:51;38.17;;;21.42;;
25905;SDS011;13713;52.552;13.204;2023-03-16T02:25:19;37.85;;;21.80;;
25905;SDS011;13713;52.552;13.204;2023-03-16T02:30:52;36.25;;;21.15;;
25905;SDS011;13713;52.552;13.204;2023-03-16T02:33:18;33.78;;;20.00;;
25905;SDS011;13713;52.552;13.204;2023-03-16T02:35:45;37.90;;;19.73;;
25905;SDS011;13713;52.552;13.204;2023-03-16T02:38:11;34.33;;;20.15;;
25905;SDS011;13713;52.552;13.204;2023-03-16T02:40:44;33.63;;;18.85;;
25905;SDS011;13713;52.552;13.204;2023-03-16T02:43:18;34.47;;;20.13;;
25905;SDS011;13713;52.552;13.204;2023-03-16T02:46:00;36.20;;;19.67;;
25905;SDS011;13713;52.552;13.204;2023-03-16T02:48:46;34.88;;;19.92;;
25905;SDS011;13713;52.552;13.204;2023-03-16T02:51:18;34.55;;;19.20;;
25905;SDS011;13713;52.552;13.204;2023-03-16T02:53:43;29.15;;;17.60;;
25905;SDS011;13713;52.552;13.204;2023-03-16T02:56:09;34.38;;;19.48;;
25905;SDS011;13713;52.552;13.204;2023-03-16T02:58:35;33.97;;;19.63;;
25905;SDS011;13713;52.552;13.204;2023-03-16T03:01:06;29.60;;;17.60;;
25905;SDS011;13713;52.552;13.204;2023-03-16T03:03:33;30.70;;;18.25;;
25905;SDS011;13713;52.552;13.204;2023-03-16T03:05:59;33.35;;;17.98;;
25905;SDS011;13713;52.552;13.204;2023-03-16T03:08:28;32.33;;;18.48;;
25905;SDS011;13713;52.552;13.204;2023-03-16T03:10:53;33.42;;;19.42;;
25905;SDS011;13713;52.552;13.204;2023-03-16T03:13:19;29.77;;;18.08;;
25905;SDS011;13713;52.552;13.204;2023-03-16T03:15:45;30.75;;;17.92;;
25905;SDS011;13713;52.552;13.204;2023-03-16T03:18:11;27.92;;;17.10;;
25905;SDS011;13713;52.552;13.204;2023-03-16T03:20:38;30.70;;;18.55;;
25905;SDS011;13713;52.552;13.204;2023-03-16T03:23:04;31.45;;;18.33;;
25905;SDS011;13713;52.552;13.204;2023-03-16T03:25:29;31.38;;;17.67;;
25905;SDS011;13713;52.552;13.204;2023-03-16T03:27:59;29.25;;;17.20;;
25905;SDS011;13713;52.552;13.204;2023-03-16T03:30:26;29.00;;;16.30;;
25905;SDS011;13713;52.552;13.204;2023-03-16T03:32:52;28.10;;;16.40;;
25905;SDS011;13713;52.552;13.204;2023-03-16T03:35:19;30.83;;;17.27;;
25905;SDS011;13713;52.552;13.204;2023-03-16T03:37:46;27.10;;;16.00;;
25905;SDS011;13713;52.552;13.204;2023-03-16T03:40:14;33.35;;;17.05;;
25905;SDS011;13713;52.552;13.204;2023-03-16T03:42:43;27.10;;;16.10;;
25905;SDS011;13713;52.552;13.204;2023-03-16T03:45:10;26.83;;;15.95;;
25905;SDS011;13713;52.552;13.204;2023-03-16T03:47:38;32.55;;;17.98;;
25905;SDS011;13713;52.552;13.204;2023-03-16T03:50:09;29.87;;;16.40;;
25905;SDS011;13713;52.552;13.204;2023-03-16T03:52:47;26.02;;;15.52;;
25905;SDS011;13713;52.552;13.204;2023-03-16T03:55:12;27.35;;;15.57;;
25905;SDS011;13713;52.552;13.204;2023-03-16T03:57:38;26.10;;;15.30;;
25905;SDS011;13713;52.552;13.204;2023-03-16T04:00:05;25.77;;;15.77;;
25905;SDS011;13713;52.552;13.204;2023-03-16T04:02:40;27.77;;;15.10;;
25905;SDS011;13713;52.552;13.204;2023-03-16T04:05:15;25.83;;;15.15;;
25905;SDS011;13713;52.552;13.204;2023-03-16T04:07:41;24.30;;;14.77;;
25905;SDS011;13713;52.552;13.204;2023-03-16T04:10:10;25.83;;;15.40;;
25905;SDS011;13713;52.552;13.204;2023-03-16T04:12:39;25.80;;;14.85;;
25905;SDS011;13713;52.552;13.204;2023-03-16T04:15:07;26.85;;;14.63;;
25905;SDS011;13713;52.552;13.204;2023-03-16T04:17:43;23.42;;;14.63;;
25905;SDS011;13713;52.552;13.204;2023-03-16T04:20:10;23.60;;;14.48;;
25905;SDS011;13713;52.552;13.204;2023-03-16T04:22:41;22.88;;;14.13;;
25905;SDS011;13713;52.552;13.204;2023-03-16T04:25:11;26.52;;;14.27;;
25905;SDS011;13713;52.552;13.204;2023-03-16T04:27:39;21.88;;;13.48;;
25905;SDS011;13713;52.552;13.204;2023-03-16T04:30:07;24.40;;;14.38;;
25905;SDS011;13713;52.552;13.204;2023-03-16T04:32:38;24.17;;;14.20;;
25905;SDS011;13713;52.552;13.204;2023-03-16T04:35:04;23.30;;;13.30;;
25905;SDS011;13713;52.552;13.204;2023-03-16T04:37:41;22.77;;;13.20;;
25905;SDS011;13713;52.552;13.204;2023-03-16T04:40:06;21.15;;;12.77;;
25905;SDS011;13713;52.552;13.204;2023-03-16T04:42:39;21.65;;;13.13;;
25905;SDS011;13713;52.552;13.204;2023-03-16T04:45:07;21.55;;;13.35;;
25905;SDS011;13713;52.552;13.204;2023-03-16T04:47:33;21.10;;;13.00;;
25905;SDS011;13713;52.552;13.204;2023-03-16T04:49:59;22.15;;;12.57;;
25905;SDS011;13713;52.552;13.204;2023-03-16T04:52:27;22.48;;;12.25;;
25905;SDS011;13713;52.552;13.204;2023-03-16T04:54:53;19.42;;;11.57;;
25905;SDS011;13713;52.552;13.204;2023-03-16T04:57:19;21.10;;;12.40;;
25905;SDS011;13713;52.552;13.204;2023-03-16T04:59:48;20.63;;;12.27;;
25905;SDS011;13713;52.552;13.204;2023-03-16T05:02:23;18.55;;;11.82;;
25905;SDS011;13713;52.552;13.204;2023-03-16T05:04:49;18.23;;;10.88;;
25905;SDS011;13713;52.552;13.204;2023-03-16T05:07:15;21.75;;;12.43;;
25905;SDS011;13713;52.552;13.204;2023-03-16T05:09:46;18.80;;;11.70;;
25905;SDS011;13713;52.552;13.204;2023-03-16T05:12:12;18.38;;;11.88;;
25905;SDS011;13713;52.552;13.204;2023-03-16T05:14:38;21.38;;;13.07;;
25905;SDS011;13713;52.552;13.204;2023-03-16T05:17:21;22.90;;;13.48;;
25905;SDS011;13713;52.552;13.204;2023-03-16T05:19:47;32.92;;;20.10;;
25905;SDS011;13713;52.552;13.204;2023-03-16T05:22:14;48.97;;;29.42;;
25905;SDS011;13713;52.552;13.204;2023-03-16T05:24:56;51.15;;;31.17;;
25905;SDS011;13713;52.552;13.204;2023-03-16T05:27:22;43.33;;;27.38;;
25905;SDS011;13713;52.552;13.204;2023-03-16T05:29:48;41.25;;;24.15;;
25905;SDS011;13713;52.552;13.204;2023-03-16T05:32:14;38.22;;;23.00;;
25905;SDS011;13713;52.552;13.204;2023-03-16T05:34:42;34.55;;;19.60;;
25905;SDS011;13713;52.552;13.204;2023-03-16T05:37:09;35.15;;;20.15;;
25905;SDS011;13713;52.552;13.204;2023-03-16T05:39:35;30.30;;;19.08;;
25905;SDS011;13713;52.552;13.204;2023-03-16T05:42:00;37.60;;;22.23;;
25905;SDS011;13713;52.552;13.204;2023-03-16T05:44:37;51.88;;;21.10;;
25905;SDS011;13713;52.552;13.204;2023-03-16T05:47:25;30.25;;;18.13;;
25905;SDS011;13713;52.552;13.204;2023-03-16T05:49:55;31.33;;;18.13;;
25905;SDS011;13713;52.552;13.204;2023-03-16T05:52:33;30.65;;;18.15;;
25905;SDS011;13713;52.552;13.204;2023-03-16T05:55:06;31.20;;;17.92;;
25905;SDS011;13713;52.552;13.204;2023-03-16T05:57:33;29.63;;;17.88;;
25905;SDS011;13713;52.552;13.204;2023-03-16T06:00:00;29.60;;;18.33;;
25905;SDS011;13713;52.552;13.204;2023-03-16T06:02:27;30.73;;;18.98;;
25905;SDS011;13713;52.552;13.204;2023-03-16T06:04:53;30.70;;;18.73;;
25905;SDS011;13713;52.552;13.204;2023-03-16T06:07:19;34.75;;;20.95;;
25905;SDS011;13713;52.552;13.204;2023-03-16T06:09:52;29.60;;;19.10;;
25905;SDS011;13713;52.552;13.204;2023-03-16T06:12:18;32.47;;;20.30;;
25905;SDS011;13713;52.552;13.204;2023-03-16T06:14:43;31.27;;;20.63;;
25905;SDS011;13713;52.552;13.204;2023-03-16T06:17:09;32.47;;;20.50;;
25905;SDS011;13713;52.552;13.204;2023-03-16T06:19:36;32.05;;;19.63;;
25905;SDS011;13713;52.552;13.204;2023-03-16T06:22:02;29.83;;;18.65;;
25905;SDS011;13713;52.552;13.204;2023-03-16T06:24:28;34.88;;;20.42;;
25905;SDS011;13713;52.552;13.204;2023-03-16T06:26:54;30.52;;;20.25;;
25905;SDS011;13713;52.552;13.204;2023-03-16T06:29:24;32.30;;;20.58;;
25905;SDS011;13713;52.552;13.204;2023-03-16T06:31:50;30.00;;;19.35;;
25905;SDS011;13713;52.552;13.204;2023-03-16T06:34:17;30.27;;;19.08;;
25905;SDS011;13713;52.552;13.204;2023-03-16T06:36:43;29.52;;;18.65;;
25905;SDS011;13713;52.552;13.204;2023-03-16T06:39:11;28.45;;;19.63;;
25905;SDS011;13713;52.552;13.204;2023-03-16T06:41:40;28.88;;;18.33;;
25905;SDS011;13713;52.552;13.204;2023-03-16T06:44:07;28.98;;;18.17;;
25905;SDS011;13713;52.552;13.204;2023-03-16T06:46:39;30.55;;;19.00;;
25905;SDS011;13713;52.552;13.204;2023-03-16T06:49:06;27.30;;;18.35;;
25905;SDS011;13713;52.552;13.204;2023-03-16T06:51:32;27.38;;;18.05;;
25905;SDS011;13713;52.552;13.204;2023-03-16T06:53:58;26.55;;;17.10;;
25905;SDS011;13713;52.552;13.204;2023-03-16T06:56:24;28.00;;;17.75;;
25905;SDS011;13713;52.552;13.204;2023-03-16T06:58:52;29.40;;;18.10;;
25905;SDS011;13713;52.552;13.204;2023-03-16T07:01:18;28.15;;;18.10;;
25905;SDS011;13713;52.552;13.204;2023-03-16T07:03:43;26.42;;;16.30;;
25905;SDS011;13713;52.552;13.204;2023-03-16T07:06:18;37.03;;;18.42;;
25905;SDS011;13713;52.552;13.204;2023-03-16T07:08:43;27.90;;;18.63;;
25905;SDS011;13713;52.552;13.204;2023-03-16T07:11:11;28.67;;;18.55;;
25905;SDS011;13713;52.552;13.204;2023-03-16T07:13:38;26.83;;;17.88;;
25905;SDS011;13713;52.552;13.204;2023-03-16T07:16:05;30.10;;;18.27;;
25905;SDS011;13713;52.552;13.204;2023-03-16T07:18:31;27.55;;;17.85;;
25905;SDS011;13713;52.552;13.204;2023-03-16T07:20:57;26.60;;;17.40;;
25905;SDS011;13713;52.552;13.204;2023-03-16T07:23:24;31.67;;;18.67;;
25905;SDS011;13713;52.552;13.204;2023-03-16T07:25:55;181.27;;;48.40;;
25905;SDS011;13713;52.552;13.204;2023-03-16T07:28:21;42.75;;;23.17;;
25905;SDS011;13713;52.552;13.204;2023-03-16T07:30:48;46.08;;;22.02;;
25905;SDS011;13713;52.552;13.204;2023-03-16T07:33:16;39.13;;;21.42;;
25905;SDS011;13713;52.552;13.204;2023-03-16T07:35:42;49.50;;;24.92;;
25905;SDS011;13713;52.552;13.204;2023-03-16T07:38:08;40.05;;;22.65;;
25905;SDS011;13713;52.552;13.204;2023-03-16T07:40:38;70.35;;;28.70;;
25905;SDS011;13713;52.552;13.204;2023-03-16T07:43:10;63.63;;;27.65;;
25905;SDS011;13713;52.552;13.204;2023-03-16T07:45:47;52.92;;;28.50;;
25905;SDS011;13713;52.552;13.204;2023-03-16T07:48:17;51.58;;;28.35;;
25905;SDS011;13713;52.552;13.204;2023-03-16T07:51:02;48.75;;;27.88;;
25905;SDS011;13713;52.552;13.204;2023-03-16T07:53:29;47.63;;;28.17;;
25905;SDS011;13713;52.552;13.204;2023-03-16T07:56:18;49.15;;;27.02;;
25905;SDS011;13713;52.552;13.204;2023-03-16T07:58:49;50.85;;;27.98;;
25905;SDS011;13713;52.552;13.204;2023-03-16T08:01:15;50.47;;;29.10;;
25905;SDS011;13713;52.552;13.204;2023-03-16T08:03:41;52.00;;;27.67;;
25905;SDS011;13713;52.552;13.204;2023-03-16T08:06:06;50.70;;;29.20;;
25905;SDS011;13713;52.552;13.204;2023-03-16T08:08:33;62.10;;;35.10;;
25905;SDS011;13713;52.552;13.204;2023-03-16T08:10:59;58.42;;;35.88;;
25905;SDS011;13713;52.552;13.204;2023-03-16T08:13:35;50.65;;;31.63;;
25905;SDS011;13713;52.552;13.204;2023-03-16T08:16:01;60.40;;;36.70;;
25905;SDS011;13713;52.552;13.204;2023-03-16T08:18:36;58.67;;;34.67;;
25905;SDS011;13713;52.552;13.204;2023-03-16T08:21:02;55.38;;;30.98;;
25905;SDS011;13713;52.552;13.204;2023-03-16T08:23:29;49.45;;;28.60;;
25905;SDS011;13713;52.552;13.204;2023-03-16T08:25:57;47.75;;;30.08;;
25905;SDS011;13713;52.552;13.204;2023-03-16T08:28:24;54.45;;;33.35;;
25905;SDS011;13713;52.552;13.204;2023-03-16T08:30:52;52.90;;;31.10;;
25905;SDS011;13713;52.552;13.204;2023-03-16T08:33:31;52.55;;;30.42;;
25905;SDS011;13713;52.552;13.204;2023-03-16T08:35:58;52.92;;;32.78;;
25905;SDS011;13713;52.552;13.204;2023-03-16T08:38:23;49.50;;;31.08;;
25905;SDS011;13713;52.552;13.204;2023-03-16T08:40:50;53.13;;;31.55;;
25905;SDS011;13713;52.552;13.204;2023-03-16T08:43:19;50.90;;;31.92;;
25905;SDS011;13713;52.552;13.204;2023-03-16T08:45:45;50.80;;;31.10;;
25905;SDS011;13713;52.552;13.204;2023-03-16T08:48:14;48.83;;;30.38;;
25905;SDS011;13713;52.552;13.204;2023-03-16T08:50:42;51.92;;;32.10;;
25905;SDS011;13713;52.552;13.204;2023-03-16T08:53:09;49.28;;;32.22;;
25905;SDS011;13713;52.552;13.204;2023-03-16T08:55:37;56.78;;;34.45;;
25905;SDS011;13713;52.552;13.204;2023-03-16T08:58:05;76.82;;;45.95;;
25905;SDS011;13713;52.552;13.204;2023-03-16T09:00:32;63.05;;;38.65;;
25905;SDS011;13713;52.552;13.204;2023-03-16T09:02:58;62.17;;;39.05;;
25905;SDS011;13713;52.552;13.204;2023-03-16T09:05:24;68.85;;;43.70;;
25905;SDS011;13713;52.552;13.204;2023-03-16T09:07:51;74.50;;;43.70;;
25905;SDS011;13713;52.552;13.204;2023-03-16T09:10:18;63.30;;;39.45;;
25905;SDS011;13713;52.552;13.204;2023-03-16T09:12:47;74.90;;;48.53;;
25905;SDS011;13713;52.552;13.204;2023-03-16T09:15:14;75.07;;;44.85;;
25905;SDS011;13713;52.552;13.204;2023-03-16T09:17:40;74.50;;;46.92;;
25905;SDS011;13713;52.552;13.204;2023-03-16T09:20:07;76.55;;;46.63;;
25905;SDS011;13713;52.552;13.204;2023-03-16T09:22:35;83.85;;;48.70;;
25905;SDS011;13713;52.552;13.204;2023-03-16T09:25:02;106.03;;;62.88;;
25905;SDS011;13713;52.552;13.204;2023-03-16T09:27:30;92.20;;;50.97;;
25905;SDS011;13713;52.552;13.204;2023-03-16T09:29:57;118.78;;;59.35;;
25905;SDS011;13713;52.552;13.204;2023-03-16T09:32:25;125.75;;;66.90;;
25905;SDS011;13713;52.552;13.204;2023-03-16T09:34:52;110.60;;;61.30;;
25905;SDS011;13713;52.552;13.204;2023-03-16T09:37:20;112.38;;;63.92;;
25905;SDS011;13713;52.552;13.204;2023-03-16T09:39:46;115.68;;;59.83;;
25905;SDS011;13713;52.552;13.204;2023-03-16T09:47:34;113.22;;;66.70;;
25905;SDS011;13713;52.552;13.204;2023-03-16T09:50:03;103.30;;;62.45;;
25905;SDS011;13713;52.552;13.204;2023-03-16T09:52:52;100.80;;;54.63;;
25905;SDS011;13713;52.552;13.204;2023-03-16T09:58:27;108.43;;;64.75;;
25905;SDS011;13713;52.552;13.204;2023-03-16T10:12:46;129.82;;;75.40;;
25905;SDS011;13713;52.552;13.204;2023-03-16T10:15:16;125.63;;;71.95;;
25905;SDS011;13713;52.552;13.204;2023-03-16T10:17:49;137.65;;;81.35;;
25905;SDS011;13713;52.552;13.204;2023-03-16T10:20:20;142.48;;;81.00;;
25905;SDS011;13713;52.552;13.204;2023-03-16T10:22:48;134.65;;;79.90;;
25905;SDS011;13713;52.552;13.204;2023-03-16T10:25:24;138.13;;;81.28;;
25905;SDS011;13713;52.552;13.204;2023-03-16T10:27:55;149.00;;;90.68;;
25905;SDS011;13713;52.552;13.204;2023-03-16T10:32:50;161.65;;;97.30;;
25905;SDS011;13713;52.552;13.204;2023-03-16T10:35:21;164.95;;;107.85;;
25905;SDS011;13713;52.552;13.204;2023-03-16T10:37:55;163.73;;;105.07;;
25905;SDS011;13713;52.552;13.204;2023-03-16T10:40:22;166.40;;;105.25;;
25905;SDS011;13713;52.552;13.204;2023-03-16T10:42:48;157.50;;;96.82;;
25905;SDS011;13713;52.552;13.204;2023-03-16T10:45:23;162.82;;;102.07;;
25905;SDS011;13713;52.552;13.204;2023-03-16T10:47:52;167.98;;;110.40;;
25905;SDS011;13713;52.552;13.204;2023-03-16T10:50:22;170.00;;;109.05;;
25905;SDS011;13713;52.552;13.204;2023-03-16T10:52:49;182.38;;;115.30;;
25905;SDS011;13713;52.552;13.204;2023-03-16T10:55:27;193.15;;;118.43;;
25905;SDS011;13713;52.552;13.204;2023-03-16T10:57:56;213.98;;;123.95;;
25905;SDS011;13713;52.552;13.204;2023-03-16T11:00:26;215.93;;;124.60;;
25905;SDS011;13713;52.552;13.204;2023-03-16T11:02:55;202.43;;;120.93;;
25905;SDS011;13713;52.552;13.204;2023-03-16T11:05:30;202.18;;;116.47;;
25905;SDS011;13713;52.552;13.204;2023-03-16T11:10:37;208.73;;;123.38;;
25905;SDS011;13713;52.552;13.204;2023-03-16T11:13:08;215.73;;;130.80;;
25905;SDS011;13713;52.552;13.204;2023-03-16T11:15:39;216.82;;;136.75;;
25905;SDS011;13713;52.552;13.204;2023-03-16T11:18:23;182.45;;;115.95;;
25905;SDS011;13713;52.552;13.204;2023-03-16T11:20:52;166.88;;;108.93;;
25905;SDS011;13713;52.552;13.204;2023-03-16T11:23:20;212.07;;;128.80;;
25905;SDS011;13713;52.552;13.204;2023-03-16T11:25:54;173.32;;;110.32;;
25905;SDS011;13713;52.552;13.204;2023-03-16T11:28:33;182.07;;;112.38;;
25905;SDS011;13713;52.552;13.204;2023-03-16T11:31:23;176.57;;;109.03;;
25905;SDS011;13713;52.552;13.204;2023-03-16T11:33:57;169.73;;;108.22;;
25905;SDS011;13713;52.552;13.204;2023-03-16T11:42:11;178.32;;;116.70;;
25905;SDS011;13713;52.552;13.204;2023-03-16T11:45:02;191.45;;;121.00;;
25905;SDS011;13713;52.552;13.204;2023-03-16T11:50:25;164.55;;;107.30;;
25905;SDS011;13713;52.552;13.204;2023-03-16T12:01:11;262.98;;;172.48;;
25905;SDS011;13713;52.552;13.204;2023-03-16T12:03:59;228.65;;;151.65;;
25905;SDS011;13713;52.552;13.204;2023-03-16T12:15:08;188.10;;;118.60;;
25905;SDS011;13713;52.552;13.204;2023-03-16T12:17:38;184.57;;;121.00;;
25905;SDS011;13713;52.552;13.204;2023-03-16T12:20:12;139.27;;;88.25;;
25905;SDS011;13713;52.552;13.204;2023-03-16T12:23:02;112.72;;;71.65;;
25905;SDS011;13713;52.552;13.204;2023-03-16T12:25:33;156.02;;;102.55;;
25905;SDS011;13713;52.552;13.204;2023-03-16T12:28:04;214.60;;;133.50;;
25905;SDS011;13713;52.552;13.204;2023-03-16T12:39:06;197.15;;;128.10;;
25905;SDS011;13713;52.552;13.204;2023-03-16T12:44:32;203.18;;;128.15;;
25905;SDS011;13713;52.552;13.204;2023-03-16T12:47:21;190.25;;;125.60;;
25905;SDS011;13713;52.552;13.204;2023-03-16T12:50:06;207.15;;;133.20;;
25905;SDS011;13713;52.552;13.204;2023-03-16T12:52:45;218.63;;;133.77;;
25905;SDS011;13713;52.552;13.204;2023-03-16T12:55:19;237.20;;;138.52;;
25905;SDS011;13713;52.552;13.204;2023-03-16T12:57:49;227.60;;;134.68;;
25905;SDS011;13713;52.552;13.204;2023-03-16T13:00:15;188.02;;;122.88;;
25905;SDS011;13713;52.552;13.204;2023-03-16T13:02:53;188.20;;;121.10;;
25905;SDS011;13713;52.552;13.204;2023-03-16T13:05:27;187.75;;;121.45;;
25905;SDS011;13713;52.552;13.204;2023-03-16T13:08:15;191.63;;;122.50;;
25905;SDS011;13713;52.552;13.204;2023-03-16T13:13:33;210.38;;;136.05;;
25905;SDS011;13713;52.552;13.204;2023-03-16T13:16:00;189.45;;;123.93;;
25905;SDS011;13713;52.552;13.204;2023-03-16T13:18:34;186.82;;;123.97;;
25905;SDS011;13713;52.552;13.204;2023-03-16T13:21:12;191.30;;;124.22;;
25905;SDS011;13713;52.552;13.204;2023-03-16T13:26:35;205.50;;;129.80;;
25905;SDS011;13713;52.552;13.204;2023-03-16T13:31:44;191.02;;;126.05;;
25905;SDS011;13713;52.552;13.204;2023-03-16T13:34:12;196.38;;;125.00;;
25905;SDS011;13713;52.552;13.204;2023-03-16T13:36:43;190.13;;;125.78;;
25905;SDS011;13713;52.552;13.204;2023-03-16T13:41:53;197.82;;;129.40;;
25905;SDS011;13713;52.552;13.204;2023-03-16T13:44:23;199.68;;;131.43;;
25905;SDS011;13713;52.552;13.204;2023-03-16T13:46:50;161.02;;;106.30;;
25905;SDS011;13713;52.552;13.204;2023-03-16T13:49:16;139.50;;;92.00;;
25905;SDS011;13713;52.552;13.204;2023-03-16T13:51:43;156.40;;;100.68;;
25905;SDS011;13713;52.552;13.204;2023-03-16T13:54:32;150.43;;;98.20;;
25905;SDS011;13713;52.552;13.204;2023-03-16T13:57:01;154.07;;;99.82;;
25905;SDS011;13713;52.552;13.204;2023-03-16T13:59:30;143.65;;;90.78;;
25905;SDS011;13713;52.552;13.204;2023-03-16T14:01:56;167.50;;;96.90;;
25905;SDS011;13713;52.552;13.204;2023-03-16T14:04:29;138.60;;;85.88;;
25905;SDS011;13713;52.552;13.204;2023-03-16T14:07:00;127.75;;;81.85;;
25905;SDS011;13713;52.552;13.204;2023-03-16T14:09:32;145.45;;;93.40;;
25905;SDS011;13713;52.552;13.204;2023-03-16T14:11:59;119.25;;;77.40;;
25905;SDS011;13713;52.552;13.204;2023-03-16T14:14:29;127.40;;;83.63;;
25905;SDS011;13713;52.552;13.204;2023-03-16T14:16:59;119.65;;;76.38;;
25905;SDS011;13713;52.552;13.204;2023-03-16T14:19:29;114.18;;;71.68;;
25905;SDS011;13713;52.552;13.204;2023-03-16T14:22:00;113.50;;;73.63;;
25905;SDS011;13713;52.552;13.204;2023-03-16T14:26:56;112.72;;;67.93;;
25905;SDS011;13713;52.552;13.204;2023-03-16T14:29:32;113.18;;;67.38;;
25905;SDS011;13713;52.552;13.204;2023-03-16T14:31:59;106.32;;;66.85;;
25905;SDS011;13713;52.552;13.204;2023-03-16T14:37:03;88.35;;;59.03;;
25905;SDS011;13713;52.552;13.204;2023-03-16T14:39:40;93.88;;;61.53;;
25905;SDS011;13713;52.552;13.204;2023-03-16T14:42:12;104.88;;;67.63;;
25905;SDS011;13713;52.552;13.204;2023-03-16T14:44:42;96.53;;;64.38;;
25905;SDS011;13713;52.552;13.204;2023-03-16T14:47:09;96.80;;;62.95;;
25905;SDS011;13713;52.552;13.204;2023-03-16T14:49:48;120.05;;;76.75;;
25905;SDS011;13713;52.552;13.204;2023-03-16T14:52:20;122.13;;;78.88;;
25905;SDS011;13713;52.552;13.204;2023-03-16T14:54:47;249.05;;;125.60;;
25905;SDS011;13713;52.552;13.204;2023-03-16T14:57:14;146.18;;;88.25;;
25905;SDS011;13713;52.552;13.204;2023-03-16T14:59:41;135.05;;;85.90;;
25905;SDS011;13713;52.552;13.204;2023-03-16T15:02:17;129.63;;;85.18;;
25905;SDS011;13713;52.552;13.204;2023-03-16T15:04:46;126.75;;;80.15;;
25905;SDS011;13713;52.552;13.204;2023-03-16T15:09:50;185.98;;;97.90;;
25905;SDS011;13713;52.552;13.204;2023-03-16T15:12:18;143.50;;;88.60;;
25905;SDS011;13713;52.552;13.204;2023-03-16T15:14:44;114.07;;;70.45;;
25905;SDS011;13713;52.552;13.204;2023-03-16T15:17:30;124.70;;;79.15;;
25905;SDS011;13713;52.552;13.204;2023-03-16T15:19:56;124.70;;;78.35;;
25905;SDS011;13713;52.552;13.204;2023-03-16T15:22:24;122.65;;;76.28;;
25905;SDS011;13713;52.552;13.204;2023-03-16T15:24:56;117.10;;;72.95;;
25905;SDS011;13713;52.552;13.204;2023-03-16T15:27:25;114.18;;;72.60;;
25905;SDS011;13713;52.552;13.204;2023-03-16T15:29:55;112.90;;;70.32;;
25905;SDS011;13713;52.552;13.204;2023-03-16T15:32:21;112.50;;;66.10;;
25905;SDS011;13713;52.552;13.204;2023-03-16T15:34:47;113.72;;;69.53;;
25905;SDS011;13713;52.552;13.204;2023-03-16T15:37:14;109.97;;;65.22;;
25905;SDS011;13713;52.552;13.204;2023-03-16T15:39:41;122.55;;;70.75;;
25905;SDS011;13713;52.552;13.204;2023-03-16T15:42:15;107.10;;;67.95;;
25905;SDS011;13713;52.552;13.204;2023-03-16T15:44:42;122.45;;;74.47;;